createdAt,value
2017-07-19T00:00:10.529Z,10.45
2017-07-19T00:02:40.201Z,10.98
2017-07-19T00:05:09.072Z,11.65
2017-07-19T00:07:37.992Z,11.40
2017-07-19T00:10:06.906Z,16.60
2017-07-19T00:12:36.574Z,10.48
2017-07-19T00:15:05.481Z,13.27
2017-07-19T00:17:34.382Z,26.25
2017-07-19T00:20:03.296Z,14.13
2017-07-19T00:22:32.961Z,12.77
2017-07-19T00:25:01.860Z,13.70
2017-07-19T00:27:30.778Z,11.95
2017-07-19T00:29:59.680Z,11.85
2017-07-19T00:32:29.335Z,13.65
2017-07-19T00:34:58.249Z,12.10
2017-07-19T00:37:27.147Z,13.07
2017-07-19T00:39:56.042Z,10.90
2017-07-19T00:42:24.960Z,15.60
2017-07-19T00:44:54.630Z,11.48
2017-07-19T00:47:23.499Z,21.52
2017-07-19T00:49:52.401Z,17.33
2017-07-19T00:52:21.295Z,13.25
2017-07-19T00:54:50.198Z,12.93
2017-07-19T00:57:19.101Z,12.93
2017-07-19T00:59:48.015Z,13.73
2017-07-19T01:02:17.691Z,14.40
2017-07-19T01:04:46.610Z,12.75
2017-07-19T01:07:16.282Z,11.52
2017-07-19T01:09:45.176Z,16.23
2017-07-19T01:12:14.388Z,13.07
2017-07-19T01:14:43.285Z,13.30
2017-07-19T01:17:12.185Z,12.75
2017-07-19T01:19:41.086Z,12.85
2017-07-19T01:22:09.994Z,12.45
2017-07-19T01:24:39.667Z,12.77
2017-07-19T01:27:08.539Z,11.82
2017-07-19T01:29:37.406Z,13.05
2017-07-19T01:32:06.322Z,12.13
2017-07-19T01:34:35.237Z,15.70
2017-07-19T01:37:04.128Z,12.25
2017-07-19T01:39:32.693Z,13.30
2017-07-19T01:42:01.606Z,12.70
2017-07-19T01:44:30.512Z,12.45
2017-07-19T01:46:59.405Z,19.33
2017-07-19T01:49:28.306Z,12.32
2017-07-19T01:51:57.960Z,10.48
2017-07-19T01:54:26.526Z,11.18
2017-07-19T01:56:54.737Z,11.65
2017-07-19T01:59:23.642Z,12.15
2017-07-19T02:01:52.517Z,11.85
2017-07-19T02:04:21.426Z,10.77
2017-07-19T02:06:50.330Z,11.50
2017-07-19T02:09:19.237Z,12.60
2017-07-19T02:11:48.161Z,12.93
2017-07-19T02:14:17.056Z,14.20
2017-07-19T02:16:45.949Z,14.70
2017-07-19T02:19:14.865Z,12.88
2017-07-19T02:21:43.774Z,14.40
2017-07-19T02:24:12.664Z,14.02
2017-07-19T02:26:41.525Z,17.52
2017-07-19T02:29:10.398Z,12.30
2017-07-19T02:31:39.268Z,13.48
2017-07-19T02:34:08.173Z,14.05
2017-07-19T02:36:37.086Z,17.58
2017-07-19T02:39:05.299Z,13.50
2017-07-19T02:41:34.203Z,15.43
2017-07-19T02:44:03.100Z,14.80
2017-07-19T02:46:32.739Z,16.73
2017-07-19T02:49:01.612Z,17.90
2017-07-19T02:51:30.474Z,14.60
2017-07-19T02:53:59.383Z,15.43
2017-07-19T02:56:29.053Z,14.98
2017-07-19T02:58:57.928Z,15.55
2017-07-19T03:01:26.837Z,14.95
2017-07-19T03:03:55.853Z,21.20
2017-07-19T03:06:24.749Z,14.60
2017-07-19T03:08:53.662Z,14.05
2017-07-19T03:11:23.337Z,13.20
2017-07-19T03:13:52.241Z,15.45
2017-07-19T03:16:21.147Z,14.40
2017-07-19T03:18:50.825Z,13.85
2017-07-19T03:21:19.797Z,16.35
2017-07-19T03:23:48.707Z,15.73
2017-07-19T03:26:17.635Z,12.93
2017-07-19T03:28:47.262Z,13.15
2017-07-19T03:31:16.930Z,14.43
2017-07-19T03:33:45.838Z,15.27
2017-07-19T03:36:14.742Z,19.40
2017-07-19T03:38:44.372Z,13.43
2017-07-19T03:41:13.274Z,14.40
2017-07-19T03:43:42.139Z,11.70
2017-07-19T03:46:11.826Z,16.73
2017-07-19T03:48:40.734Z,16.23
2017-07-19T03:51:10.404Z,12.68
2017-07-19T03:53:39.317Z,14.25
2017-07-19T03:56:08.221Z,17.58
2017-07-19T03:58:37.129Z,15.40
2017-07-19T04:01:06.798Z,13.90
2017-07-19T04:03:35.701Z,12.60
2017-07-19T04:06:04.610Z,13.48
2017-07-19T04:08:33.479Z,14.40
2017-07-19T04:11:02.346Z,14.60
2017-07-19T04:13:31.261Z,15.02
2017-07-19T04:16:00.161Z,12.95
2017-07-19T04:18:29.072Z,13.40
2017-07-19T04:20:58.737Z,16.17
2017-07-19T04:23:27.727Z,13.82
2017-07-19T04:25:56.634Z,14.50
2017-07-19T04:28:25.540Z,16.55
2017-07-19T04:30:54.449Z,18.20
2017-07-19T04:33:23.349Z,12.80
2017-07-19T04:35:52.984Z,13.25
2017-07-19T04:38:21.881Z,14.45
2017-07-19T04:40:50.794Z,14.90
2017-07-19T04:43:19.710Z,14.35
2017-07-19T04:45:48.605Z,13.45
2017-07-19T04:48:17.513Z,15.80
2017-07-19T04:50:47.181Z,14.87
2017-07-19T04:53:16.077Z,14.40
2017-07-19T04:55:44.780Z,12.68
2017-07-19T04:58:13.490Z,24.55
2017-07-19T05:00:43.119Z,14.77
2017-07-19T05:03:12.094Z,15.02
2017-07-19T05:05:41.761Z,14.45
2017-07-19T05:08:10.676Z,14.38
2017-07-19T05:10:39.580Z,13.82
2017-07-19T05:13:08.448Z,15.70
2017-07-19T05:15:37.344Z,15.25
2017-07-19T05:18:06.250Z,13.88
2017-07-19T05:20:35.162Z,13.40
2017-07-19T05:23:05.662Z,13.57
2017-07-19T05:25:34.558Z,10.93
2017-07-19T05:28:05.566Z,13.75
2017-07-19T05:30:34.477Z,12.30
2017-07-19T05:33:03.369Z,12.20
2017-07-19T05:35:32.275Z,10.43
2017-07-19T05:38:01.180Z,13.30
2017-07-19T05:40:30.054Z,13.52
2017-07-19T05:42:58.960Z,13.52
2017-07-19T05:45:29.305Z,12.35
2017-07-19T05:47:58.989Z,12.40
2017-07-19T05:50:27.911Z,13.62
2017-07-19T05:52:56.829Z,15.65
2017-07-19T05:58:19.850Z,10.52
2017-07-19T06:00:48.770Z,17.02
2017-07-19T06:06:10.722Z,12.88
2017-07-19T06:08:39.630Z,13.10
2017-07-19T06:11:08.525Z,10.63
2017-07-19T06:13:37.413Z,13.77
2017-07-19T06:16:06.587Z,16.77
2017-07-19T06:18:35.490Z,12.30
2017-07-19T06:21:05.164Z,14.07
2017-07-19T06:23:34.069Z,18.77
2017-07-19T06:26:02.976Z,15.35
2017-07-19T06:28:31.888Z,13.00
2017-07-19T06:31:00.808Z,17.17
2017-07-19T06:33:29.741Z,12.30
2017-07-19T06:35:58.636Z,15.60
2017-07-19T06:38:28.325Z,12.25
2017-07-19T06:40:57.237Z,11.82
2017-07-19T06:43:26.909Z,11.85
2017-07-19T06:45:55.824Z,12.10
2017-07-19T06:48:24.736Z,12.13
2017-07-19T06:50:53.645Z,11.70
2017-07-19T06:56:08.254Z,15.65
2017-07-19T06:58:37.166Z,11.52
2017-07-19T07:01:06.098Z,12.23
2017-07-19T07:03:35.777Z,11.93
2017-07-19T07:06:04.656Z,11.88
2017-07-19T07:08:34.242Z,11.82
2017-07-19T07:11:03.129Z,10.60
2017-07-19T07:13:32.046Z,12.95
2017-07-19T07:16:01.191Z,13.68
2017-07-19T07:18:30.861Z,9.60
2017-07-19T07:20:59.766Z,19.37
2017-07-19T07:23:28.672Z,17.80
2017-07-19T07:25:59.230Z,16.27
2017-07-19T07:28:28.944Z,22.67
2017-07-19T07:30:57.854Z,18.25
2017-07-19T07:33:26.771Z,12.57
2017-07-19T07:35:55.678Z,14.38
2017-07-19T07:38:24.576Z,14.65
2017-07-19T07:40:54.269Z,8.52
2017-07-19T07:43:23.195Z,14.13
2017-07-19T07:45:52.113Z,19.10
2017-07-19T07:48:21.006Z,20.35
2017-07-19T07:51:07.993Z,20.67
2017-07-19T07:53:38.532Z,7.78
2017-07-19T07:56:07.442Z,13.80
2017-07-19T07:58:36.347Z,12.10
2017-07-19T08:01:05.212Z,9.63
2017-07-19T08:03:34.082Z,11.20
2017-07-19T08:06:03.010Z,6.75
2017-07-19T08:08:31.898Z,7.78
2017-07-19T08:11:00.824Z,9.80
2017-07-19T08:13:29.701Z,7.30
2017-07-19T08:15:58.565Z,8.90
2017-07-19T08:18:27.429Z,6.53
2017-07-19T08:20:56.324Z,7.55
2017-07-19T08:23:25.994Z,10.48
2017-07-19T08:25:54.888Z,6.60
2017-07-19T08:28:23.739Z,9.25
2017-07-19T08:30:52.648Z,7.35
2017-07-19T08:33:21.547Z,11.98
2017-07-19T08:35:50.178Z,8.53
2017-07-19T08:38:18.808Z,7.73
2017-07-19T08:40:47.432Z,12.30
2017-07-19T08:43:16.830Z,10.80
2017-07-19T08:45:47.057Z,5.40
2017-07-19T08:48:15.684Z,7.83
2017-07-19T08:50:44.328Z,6.80
2017-07-19T08:53:13.699Z,11.50
2017-07-19T08:55:42.323Z,9.13
2017-07-19T08:58:11.729Z,5.50
2017-07-19T09:00:40.465Z,5.93
2017-07-19T09:03:09.103Z,7.97
2017-07-19T09:05:37.745Z,10.80
2017-07-19T09:08:06.469Z,5.33
2017-07-19T09:10:35.890Z,7.07
2017-07-19T09:13:04.220Z,6.60
2017-07-19T09:15:32.843Z,4.80
2017-07-19T09:18:02.239Z,7.83
2017-07-19T09:20:30.866Z,7.70
2017-07-19T09:23:00.992Z,5.33
2017-07-19T09:25:29.631Z,9.97
2017-07-19T09:27:58.261Z,5.60
2017-07-19T09:30:26.881Z,5.13
2017-07-19T09:32:55.529Z,6.00
2017-07-19T09:35:24.175Z,7.50
2017-07-19T09:37:53.583Z,5.80
2017-07-19T09:40:22.987Z,4.83
2017-07-19T09:42:51.616Z,8.97
2017-07-19T09:45:20.256Z,5.80
2017-07-19T09:47:49.649Z,6.93
2017-07-19T09:50:19.031Z,5.23
2017-07-19T09:52:47.671Z,7.03
2017-07-19T09:55:16.303Z,4.43
2017-07-19T09:57:44.934Z,4.50
2017-07-19T10:00:13.571Z,5.03
2017-07-19T10:02:42.510Z,7.10
2017-07-19T10:05:11.142Z,4.30
2017-07-19T10:07:39.762Z,4.90
2017-07-19T10:10:09.117Z,7.83
2017-07-19T10:12:37.715Z,7.53
2017-07-19T10:15:06.337Z,4.00
2017-07-19T10:17:35.729Z,3.87
2017-07-19T10:20:04.339Z,4.30
2017-07-19T10:22:32.961Z,11.03
2017-07-19T10:25:01.585Z,6.27
2017-07-19T10:27:30.979Z,5.37
2017-07-19T10:29:59.591Z,7.07
2017-07-19T10:32:28.955Z,4.90
2017-07-19T10:34:57.578Z,5.93
2017-07-19T10:37:27.057Z,4.23
2017-07-19T10:39:55.682Z,3.97
2017-07-19T10:42:24.328Z,5.50
2017-07-19T10:44:52.958Z,5.87
2017-07-19T10:47:21.587Z,4.10
2017-07-19T10:49:50.213Z,6.07
2017-07-19T10:52:18.858Z,5.10
2017-07-19T10:54:47.486Z,4.77
2017-07-19T10:57:16.139Z,4.17
2017-07-19T10:59:44.757Z,5.80
2017-07-19T11:02:14.158Z,7.10
2017-07-19T11:04:42.787Z,5.33
2017-07-19T11:07:11.415Z,6.93
2017-07-19T11:09:40.795Z,3.57
2017-07-19T11:12:09.420Z,7.93
2017-07-19T11:14:38.805Z,4.27
2017-07-19T11:17:07.416Z,4.07
2017-07-19T11:19:36.040Z,8.57
2017-07-19T11:22:04.671Z,4.27
2017-07-19T11:24:34.053Z,5.40
2017-07-19T11:27:02.670Z,7.87
2017-07-19T11:29:31.165Z,4.00
2017-07-19T11:32:00.238Z,7.07
2017-07-19T11:34:29.639Z,4.50
2017-07-19T11:36:58.274Z,5.17
2017-07-19T11:39:26.902Z,4.30
2017-07-19T11:41:56.301Z,10.60
2017-07-19T11:44:24.912Z,6.30
2017-07-19T11:46:54.259Z,3.70
2017-07-19T11:49:22.877Z,3.90
2017-07-19T11:51:51.455Z,5.77
2017-07-19T11:54:20.072Z,5.40
2017-07-19T11:56:48.689Z,5.97
2017-07-19T11:59:17.304Z,3.37
2017-07-19T12:01:45.917Z,6.40
2017-07-19T12:04:15.385Z,3.57
2017-07-19T12:06:44.010Z,6.80
2017-07-19T12:09:13.403Z,7.30
2017-07-19T12:11:42.823Z,10.50
2017-07-19T12:14:12.200Z,3.70
2017-07-19T12:16:40.822Z,5.23
2017-07-19T12:19:09.441Z,5.03
2017-07-19T12:21:38.076Z,4.83
2017-07-19T12:24:07.475Z,7.90
2017-07-19T12:26:36.886Z,4.63
2017-07-19T12:29:05.508Z,4.30
2017-07-19T12:31:34.128Z,6.00
2017-07-19T12:34:02.764Z,5.77
2017-07-19T12:36:31.378Z,3.33
2017-07-19T12:38:59.992Z,4.83
2017-07-19T12:41:28.599Z,4.50
2017-07-19T12:43:57.224Z,6.37
2017-07-19T12:46:25.833Z,4.67
2017-07-19T12:48:54.444Z,5.40
2017-07-19T12:51:23.820Z,4.83
2017-07-19T12:53:52.442Z,9.60
2017-07-19T12:56:21.886Z,8.03
2017-07-19T12:58:50.474Z,6.10
2017-07-19T13:01:19.046Z,6.50
2017-07-19T13:03:47.790Z,3.97
2017-07-19T13:06:17.195Z,6.50
2017-07-19T13:08:46.547Z,8.37
2017-07-19T13:11:15.135Z,9.00
2017-07-19T13:13:43.761Z,5.83
2017-07-19T13:16:12.336Z,7.77
2017-07-19T13:18:40.949Z,4.10
2017-07-19T13:21:10.398Z,14.23
2017-07-19T13:23:39.034Z,7.40
2017-07-19T13:26:08.433Z,6.63
2017-07-19T13:28:37.821Z,8.43
2017-07-19T13:31:06.438Z,9.17
2017-07-19T13:33:35.058Z,6.97
2017-07-19T13:36:03.679Z,3.97
2017-07-19T13:38:32.258Z,9.40
2017-07-19T13:41:00.891Z,4.33
2017-07-19T13:43:29.513Z,4.50
2017-07-19T13:45:58.150Z,6.30
2017-07-19T13:48:26.795Z,8.33
2017-07-19T13:50:55.409Z,8.70
2017-07-19T13:53:24.814Z,5.03
2017-07-19T13:55:54.213Z,5.00
2017-07-19T13:58:23.627Z,3.03
2017-07-19T14:00:52.982Z,3.50
2017-07-19T14:03:21.615Z,3.93
2017-07-19T14:05:51.002Z,3.77
2017-07-19T14:08:20.390Z,6.70
2017-07-19T14:10:49.001Z,8.03
2017-07-19T14:13:18.386Z,3.87
2017-07-19T14:15:46.988Z,9.03
2017-07-19T14:18:16.389Z,3.83
2017-07-19T14:20:45.778Z,4.23
2017-07-19T14:23:14.406Z,3.17
2017-07-19T14:25:43.019Z,3.70
2017-07-19T14:28:11.646Z,3.83
2017-07-19T14:30:41.024Z,6.50
2017-07-19T14:33:09.647Z,5.00
2017-07-19T14:35:39.025Z,3.57
2017-07-19T14:38:07.642Z,3.37
2017-07-19T14:40:36.231Z,3.70
2017-07-19T14:43:04.854Z,3.90
2017-07-19T14:45:33.477Z,11.60
2017-07-19T14:48:02.818Z,5.90
2017-07-19T14:50:31.434Z,4.60
2017-07-19T14:53:00.044Z,9.23
2017-07-19T14:55:28.653Z,7.20
2017-07-19T14:57:58.033Z,6.50
2017-07-19T15:00:26.467Z,8.30
2017-07-19T15:02:55.101Z,9.10
2017-07-19T15:05:23.713Z,4.73
2017-07-19T15:07:52.310Z,7.70
2017-07-19T15:10:20.895Z,6.00
2017-07-19T15:12:49.514Z,5.50
2017-07-19T15:15:18.124Z,9.50
2017-07-19T15:17:46.701Z,4.73
2017-07-19T15:20:15.322Z,7.77
2017-07-19T15:22:43.939Z,4.57
2017-07-19T15:25:12.552Z,6.00
2017-07-19T15:27:41.171Z,4.13
2017-07-19T15:30:10.566Z,5.20
2017-07-19T15:32:39.970Z,5.20
2017-07-19T15:35:09.419Z,3.80
2017-07-19T15:37:38.047Z,5.50
2017-07-19T15:40:06.638Z,4.20
2017-07-19T15:42:35.994Z,5.77
2017-07-19T15:45:04.604Z,3.53
2017-07-19T15:47:33.230Z,4.67
2017-07-19T15:50:01.861Z,6.80
2017-07-19T15:52:30.477Z,4.50
2017-07-19T15:54:59.096Z,5.57
2017-07-19T15:57:27.708Z,6.90
2017-07-19T15:59:56.333Z,5.73
2017-07-19T16:02:24.963Z,4.77
2017-07-19T16:04:53.590Z,10.03
2017-07-19T16:07:22.222Z,4.93
2017-07-19T16:09:50.835Z,5.93
2017-07-19T16:12:19.418Z,4.23
2017-07-19T16:14:48.028Z,5.40
2017-07-19T16:17:16.651Z,6.00
2017-07-19T16:19:45.232Z,8.03
2017-07-19T16:22:13.849Z,7.40
2017-07-19T16:24:42.476Z,4.63
2017-07-19T16:27:11.107Z,5.43
2017-07-19T16:29:39.695Z,6.07
2017-07-19T16:32:08.320Z,5.93
2017-07-19T16:34:36.943Z,5.27
2017-07-19T16:37:06.325Z,4.63
2017-07-19T16:39:34.941Z,4.70
2017-07-19T16:42:04.246Z,6.43
2017-07-19T16:44:32.869Z,4.93
2017-07-19T16:47:01.464Z,5.77
2017-07-19T16:49:30.080Z,4.57
2017-07-19T16:51:59.475Z,4.10
2017-07-19T16:54:28.051Z,6.77
2017-07-19T16:56:56.670Z,5.07
2017-07-19T16:59:25.289Z,6.83
2017-07-19T17:01:54.425Z,5.90
2017-07-19T17:04:23.054Z,5.00
2017-07-19T17:06:51.670Z,8.87
2017-07-19T17:09:20.300Z,4.00
2017-07-19T17:11:48.937Z,5.83
2017-07-19T17:14:17.563Z,6.20
2017-07-19T17:16:46.962Z,4.40
2017-07-19T17:19:15.599Z,9.43
2017-07-19T17:21:44.273Z,5.60
2017-07-19T17:24:12.895Z,7.13
2017-07-19T17:26:42.437Z,5.40
2017-07-19T17:29:11.838Z,5.83
2017-07-19T17:31:41.259Z,5.47
2017-07-19T17:34:09.885Z,5.23
2017-07-19T17:36:38.500Z,6.43
2017-07-19T17:39:07.128Z,5.10
2017-07-19T17:41:35.918Z,5.20
2017-07-19T17:44:04.542Z,7.03
2017-07-19T17:46:33.160Z,6.00
2017-07-19T17:49:02.567Z,6.10
2017-07-19T17:51:35.395Z,6.93
2017-07-19T17:54:04.033Z,7.20
2017-07-19T17:59:09.390Z,5.10
2017-07-19T18:01:39.064Z,11.23
2017-07-19T18:04:07.688Z,11.73
2017-07-19T18:06:36.324Z,7.63
2017-07-19T18:09:04.265Z,7.00
2017-07-19T18:11:34.782Z,10.90
2017-07-19T18:14:03.397Z,7.37
2017-07-19T18:16:33.511Z,5.83
2017-07-19T18:19:02.128Z,10.90
2017-07-19T18:21:30.754Z,5.70
2017-07-19T18:23:59.382Z,6.00
2017-07-19T18:26:27.966Z,5.57
2017-07-19T18:28:56.601Z,5.73
2017-07-19T18:31:25.217Z,9.90
2017-07-19T18:33:53.842Z,7.30
2017-07-19T18:36:22.474Z,11.23
2017-07-19T18:38:51.093Z,6.73
2017-07-19T18:41:19.748Z,7.60
2017-07-19T18:43:48.386Z,4.87
2017-07-19T18:46:17.893Z,6.03
2017-07-19T18:48:46.553Z,8.07
2017-07-19T18:51:15.202Z,9.43
2017-07-19T18:53:43.826Z,6.80
2017-07-19T18:56:12.460Z,7.30
2017-07-19T19:01:23.806Z,6.57
2017-07-19T19:04:03.957Z,7.27
2017-07-19T19:06:33.476Z,14.93
2017-07-19T19:09:02.097Z,6.00
2017-07-19T19:11:31.207Z,10.20
2017-07-19T19:13:59.845Z,10.90
2017-07-19T19:16:28.464Z,7.27
2017-07-19T19:18:57.269Z,9.90
2017-07-19T19:21:25.908Z,7.90
2017-07-19T19:23:54.547Z,7.13
2017-07-19T19:26:26.949Z,7.73
2017-07-19T19:37:21.496Z,5.87
2017-07-19T19:39:50.117Z,10.40
2017-07-19T19:42:18.748Z,8.00
2017-07-19T19:44:47.411Z,9.93
2017-07-19T19:47:16.840Z,8.70
2017-07-19T19:49:45.460Z,9.00
2017-07-19T19:52:14.089Z,10.73
2017-07-19T19:54:43.476Z,10.83
2017-07-19T19:57:12.115Z,8.00
2017-07-19T19:59:55.955Z,11.00
2017-07-19T20:02:24.399Z,13.40
2017-07-19T20:04:53.780Z,6.53
2017-07-19T20:07:22.672Z,10.17
2017-07-19T20:09:53.561Z,5.53
2017-07-19T20:12:22.178Z,7.13
2017-07-19T20:14:50.821Z,7.40
2017-07-19T20:20:15.839Z,9.60
2017-07-19T20:22:45.222Z,7.33
2017-07-19T20:25:15.530Z,9.37
2017-07-19T20:30:58.997Z,6.70
2017-07-19T20:33:44.010Z,12.30
2017-07-19T20:36:23.855Z,7.73
2017-07-19T20:38:52.487Z,7.73
2017-07-19T20:41:21.117Z,9.53
2017-07-19T20:43:50.367Z,11.10
2017-07-19T20:46:19.162Z,7.07
2017-07-19T20:48:47.795Z,9.10
2017-07-19T20:51:16.436Z,9.67
2017-07-19T20:53:45.060Z,8.40
2017-07-19T20:56:13.724Z,7.67
2017-07-19T20:58:42.374Z,14.70
2017-07-19T21:01:10.746Z,8.90
2017-07-19T21:03:40.323Z,11.43
2017-07-19T21:06:08.955Z,8.50
2017-07-19T21:08:37.587Z,9.03
2017-07-19T21:11:06.211Z,10.60
2017-07-19T21:13:34.857Z,7.97
2017-07-19T21:16:04.252Z,9.53
2017-07-19T21:18:32.898Z,9.07
2017-07-19T21:21:01.535Z,14.70
2017-07-19T21:23:30.251Z,8.27
2017-07-19T21:26:03.110Z,8.57
2017-07-19T21:40:40.758Z,13.80
2017-07-19T22:11:07.516Z,13.43
2017-07-19T22:16:33.310Z,10.20
2017-07-19T22:19:16.327Z,15.83
2017-07-19T22:21:53.213Z,10.57
2017-07-19T22:34:08.761Z,22.30
2017-07-19T22:36:39.109Z,15.70
2017-07-19T22:39:10.205Z,22.60
2017-07-19T22:41:39.897Z,46.55
2017-07-19T22:44:09.689Z,18.87
2017-07-19T22:46:41.263Z,17.77
2017-07-19T22:49:13.322Z,13.80
2017-07-19T22:51:45.971Z,10.82
2017-07-19T23:26:30.179Z,8.65
2017-07-19T23:28:59.221Z,5.93
2017-07-19T23:31:28.885Z,13.10
2017-07-19T23:33:57.771Z,5.18
2017-07-19T23:36:26.399Z,5.07
2017-07-19T23:38:55.278Z,9.43
2017-07-19T23:41:24.160Z,9.00
2017-07-19T23:43:53.045Z,8.60
2017-07-19T23:46:22.194Z,8.70
2017-07-19T23:48:51.913Z,4.45
2017-07-19T23:51:20.814Z,5.62
2017-07-19T23:53:54.792Z,10.75
2017-07-19T23:56:33.591Z,14.87
